Time;durP1;ratioP1;P1;durP2;ratioP2;P2;SDS_P1;SDS_P2;PMS_P1;PMS_P2;Temp;Humidity;BMP_temperature;BMP_pressure;BME280_temperature;BME280_humidity;BME280_pressure;Samples;Min_cycle;Max_cycle;Signal;HPM_P1;HPM_P2
2021/10/13 00:01:57;;;;;;;8.52;5.90;;;9.50;99.90;;;;;;5089391;28;20131;-77
2021/10/13 00:04:24;;;;;;;10.20;6.25;;;9.50;99.90;;;;;;5078496;28;20048;-79
2021/10/13 00:06:53;;;;;;;9.82;5.93;;;9.50;99.90;;;;;;5079683;28;20484;-78
2021/10/13 00:09:20;;;;;;;10.02;6.25;;;9.50;99.90;;;;;;5087228;28;20863;-79
2021/10/13 00:11:47;;;;;;;10.07;6.57;;;9.50;99.90;;;;;;5086956;28;20124;-79
2021/10/13 00:14:14;;;;;;;11.93;6.88;;;9.50;99.90;;;;;;5086631;28;20132;-79
2021/10/13 00:16:51;;;;;;;11.65;7.25;;;9.50;99.90;;;;;;5086402;28;20466;-80
2021/10/13 00:19:18;;;;;;;9.75;6.32;;;9.50;99.90;;;;;;5078856;28;20052;-79
2021/10/13 00:21:45;;;;;;;9.75;6.80;;;9.50;99.90;;;;;;5078030;28;20126;-80
2021/10/13 00:24:13;;;;;;;10.48;7.03;;;9.40;99.90;;;;;;5088088;28;20131;-79
2021/10/13 00:26:40;;;;;;;11.20;7.10;;;9.40;99.90;;;;;;5085674;28;20134;-79
2021/10/13 00:29:08;;;;;;;10.43;6.18;;;9.40;99.90;;;;;;5086236;28;20431;-78
2021/10/13 00:31:35;;;;;;;9.63;6.00;;;9.40;99.90;;;;;;5086020;28;20139;-79
2021/10/13 00:34:02;;;;;;;10.30;6.57;;;9.40;99.90;;;;;;5081096;28;20139;-80
2021/10/13 00:36:29;;;;;;;10.60;6.82;;;9.30;99.90;;;;;;5081646;28;20080;-79
2021/10/13 00:38:56;;;;;;;10.25;6.35;;;9.30;99.90;;;;;;5087557;28;20162;-79
2021/10/13 00:41:24;;;;;;;9.70;6.47;;;9.30;99.90;;;;;;5077732;28;20127;-79
2021/10/13 00:43:52;;;;;;;10.60;6.55;;;9.30;99.90;;;;;;5078155;28;20131;-79
2021/10/13 00:46:19;;;;;;;9.20;6.13;;;9.30;99.90;;;;;;5094425;28;20564;-79
2021/10/13 00:48:46;;;;;;;11.27;6.55;;;9.30;99.90;;;;;;5082725;28;20139;-80
2021/10/13 00:51:15;;;;;;;9.82;6.40;;;9.30;99.90;;;;;;5089662;28;20136;-80
2021/10/13 00:53:42;;;;;;;9.68;6.05;;;9.30;99.90;;;;;;5078291;28;20462;-79
2021/10/13 00:56:09;;;;;;;9.10;6.05;;;9.30;99.90;;;;;;5087715;28;20086;-79
2021/10/13 00:58:37;;;;;;;11.00;6.22;;;9.30;99.90;;;;;;5090752;28;20126;-79
2021/10/13 01:01:23;;;;;;;10.23;6.25;;;9.30;99.90;;;;;;5079845;28;20043;-79
2021/10/13 01:03:59;;;;;;;9.68;6.07;;;9.30;99.90;;;;;;5082202;28;20144;-79
2021/10/13 01:06:36;;;;;;;9.32;5.78;;;9.30;99.90;;;;;;5090305;28;20150;-79
2021/10/13 01:09:11;;;;;;;9.88;5.88;;;9.40;99.90;;;;;;5081722;28;20119;-78
2021/10/13 01:11:42;;;;;;;;;;;9.40;99.90;;;;;;5077662;28;20108;-80
2021/10/13 01:14:34;;;;;;;9.68;5.80;;;9.30;99.90;;;;;;5087492;28;20373;-77
2021/10/13 01:17:12;;;;;;;9.82;5.78;;;9.30;99.90;;;;;;5087689;28;20508;-79
2021/10/13 01:19:54;;;;;;;9.70;5.53;;;9.40;99.90;;;;;;5076872;28;20063;-77
2021/10/13 01:23:06;;;;;;;9.48;5.70;;;9.30;99.90;;;;;;5081238;28;20056;-77
2021/10/13 01:25:47;;;;;;;9.63;5.93;;;9.40;99.90;;;;;;5042406;28;20127;-77
2021/10/13 01:28:18;;;;;;;9.10;5.80;;;9.40;99.90;;;;;;5078199;28;20084;-79
2021/10/13 01:30:50;;;;;;;8.30;5.30;;;9.40;99.90;;;;;;5088664;28;20145;-80
2021/10/13 01:33:24;;;;;;;9.60;5.82;;;9.40;99.90;;;;;;5081167;28;20126;-78
2021/10/13 01:35:56;;;;;;;10.07;5.82;;;9.30;99.90;;;;;;5081430;28;20048;-78
2021/10/13 01:38:28;;;;;;;10.20;6.05;;;9.30;99.90;;;;;;5089793;28;20135;-76
2021/10/13 01:41:02;;;;;;;9.00;5.40;;;9.40;99.90;;;;;;5078066;28;20131;-79
2021/10/13 01:43:34;;;;;;;7.85;5.43;;;9.30;99.90;;;;;;5082437;28;20053;-77
2021/10/13 01:46:04;;;;;;;9.57;5.25;;;9.30;99.90;;;;;;5087525;28;20044;-77
2021/10/13 01:48:33;;;;;;;8.02;4.80;;;9.30;99.90;;;;;;5078732;28;20084;-77
2021/10/13 01:51:01;;;;;;;9.02;5.95;;;9.30;99.90;;;;;;5088196;28;20051;-75
2021/10/13 01:53:29;;;;;;;7.18;4.63;;;9.30;99.90;;;;;;5082421;28;20144;-78
2021/10/13 01:55:58;;;;;;;9.63;5.10;;;9.30;99.90;;;;;;5080142;28;20143;-78
2021/10/13 01:58:27;;;;;;;8.88;5.13;;;9.30;99.90;;;;;;5089362;28;20131;-78
2021/10/13 02:00:57;;;;;;;8.48;5.07;;;9.30;99.90;;;;;;5088648;28;20124;-79
2021/10/13 02:03:27;;;;;;;9.10;5.28;;;9.30;99.90;;;;;;5081243;28;20493;-79
2021/10/13 02:06:01;;;;;;;7.47;5.00;;;9.20;99.90;;;;;;5080208;28;20486;-78
2021/10/13 02:08:29;;;;;;;8.20;5.45;;;9.30;99.90;;;;;;5089762;28;20136;-80
2021/10/13 02:10:59;;;;;;;9.40;5.70;;;9.20;99.90;;;;;;5077369;28;20151;-80
2021/10/13 02:13:32;;;;;;;9.68;5.13;;;9.20;99.90;;;;;;5084207;28;20099;-79
2021/10/13 02:16:03;;;;;;;8.13;4.80;;;9.30;99.90;;;;;;5085989;28;20052;-78
2021/10/13 02:18:32;;;;;;;6.90;4.57;;;9.20;99.90;;;;;;5075314;28;20574;-78
2021/10/13 02:21:01;;;;;;;9.95;5.68;;;9.30;99.90;;;;;;5092382;28;20135;-79
2021/10/13 02:23:33;;;;;;;8.57;5.22;;;9.30;99.90;;;;;;5083521;28;20051;-79
2021/10/13 02:26:07;;;;;;;10.88;5.20;;;9.20;99.90;;;;;;5086044;28;20127;-79
2021/10/13 02:28:40;;;;;;;7.75;4.63;;;9.20;99.90;;;;;;5075718;28;20127;-78
2021/10/13 02:31:09;;;;;;;10.35;4.95;;;9.20;99.90;;;;;;5086604;28;20123;-79
2021/10/13 02:33:37;;;;;;;7.03;4.68;;;9.20;99.90;;;;;;5082419;28;20476;-79
2021/10/13 02:36:05;;;;;;;7.03;4.40;;;9.10;99.90;;;;;;5078506;28;20044;-79
2021/10/13 02:38:32;;;;;;;8.10;4.95;;;9.10;99.90;;;;;;5072710;28;20139;-76
2021/10/13 02:40:59;;;;;;;8.30;4.47;;;9.10;99.90;;;;;;5085109;28;20116;-76
2021/10/13 02:43:28;;;;;;;7.72;4.53;;;9.20;99.90;;;;;;5078003;28;20143;-77
2021/10/13 02:46:01;;;;;;;6.70;3.97;;;9.10;99.90;;;;;;5089554;28;20127;-76
2021/10/13 02:48:32;;;;;;;7.43;4.45;;;9.20;99.90;;;;;;5082072;28;20135;-77
2021/10/13 02:51:08;;;;;;;8.70;4.97;;;9.10;99.90;;;;;;5089262;28;20138;-76
2021/10/13 02:53:42;;;;;;;9.57;4.95;;;9.20;99.90;;;;;;5084193;28;20055;-79
2021/10/13 02:56:15;;;;;;;9.32;4.70;;;9.10;99.90;;;;;;5077418;28;20048;-80
2021/10/13 02:58:48;;;;;;;8.02;4.60;;;9.10;99.90;;;;;;5091425;28;20157;-80
2021/10/13 03:01:17;;;;;;;9.68;4.97;;;9.10;99.90;;;;;;5092238;28;20132;-79
2021/10/13 03:03:54;;;;;;;7.60;4.85;;;9.10;99.90;;;;;;5088543;28;20048;-80
2021/10/13 03:06:22;;;;;;;8.70;4.30;;;9.10;99.90;;;;;;5073331;28;20502;-78
2021/10/13 03:08:53;;;;;;;9.43;4.63;;;9.10;99.90;;;;;;5071520;28;20113;-81
2021/10/13 03:11:24;;;;;;;7.72;4.85;;;9.00;99.90;;;;;;5080748;28;20440;-77
2021/10/13 03:13:53;;;;;;;10.00;5.30;;;9.00;99.90;;;;;;5080633;28;20143;-80
2021/10/13 03:16:22;;;;;;;8.20;5.38;;;9.00;99.90;;;;;;5072136;28;20131;-79
2021/10/13 03:18:51;;;;;;;10.10;4.78;;;8.90;99.90;;;;;;5072189;28;20122;-79
2021/10/13 03:21:19;;;;;;;8.00;4.30;;;8.90;99.90;;;;;;5080659;28;20128;-77
2021/10/13 03:23:46;;;;;;;8.57;4.95;;;8.90;99.90;;;;;;5079984;28;20135;-81
2021/10/13 03:26:15;;;;;;;7.85;4.75;;;8.90;99.90;;;;;;5073268;28;20151;-78
2021/10/13 03:28:43;;;;;;;8.05;4.60;;;8.90;99.90;;;;;;5084648;28;20143;-79
2021/10/13 03:31:10;;;;;;;9.05;4.30;;;8.80;99.90;;;;;;5076914;28;20122;-77
2021/10/13 03:33:38;;;;;;;7.80;4.38;;;8.80;99.90;;;;;;5092154;28;20130;-80
2021/10/13 03:36:09;;;;;;;6.60;3.90;;;8.80;99.90;;;;;;5078277;28;20059;-80
2021/10/13 03:38:37;;;;;;;6.43;4.15;;;8.80;99.90;;;;;;5088626;28;20062;-79
2021/10/13 03:41:04;;;;;;;8.30;5.25;;;8.70;99.90;;;;;;5077814;28;20443;-78
2021/10/13 03:43:31;;;;;;;7.18;4.63;;;8.70;99.90;;;;;;5082902;28;20135;-81
2021/10/13 03:45:59;;;;;;;8.48;4.85;;;8.70;99.90;;;;;;5086094;28;20238;-81
2021/10/13 03:48:30;;;;;;;8.10;4.63;;;8.70;99.90;;;;;;5092452;28;20128;-81
2021/10/13 03:50:57;;;;;;;7.50;4.30;;;8.70;99.90;;;;;;5073255;28;20501;-81
2021/10/13 03:53:25;;;;;;;8.73;4.75;;;8.60;99.90;;;;;;5073774;28;20540;-80
2021/10/13 03:55:52;;;;;;;7.47;4.80;;;8.60;99.90;;;;;;5073527;28;20132;-81
2021/10/13 03:58:20;;;;;;;7.38;4.70;;;8.60;99.90;;;;;;5089729;28;20127;-83
2021/10/13 04:00:47;;;;;;;9.55;5.07;;;8.60;99.90;;;;;;5074121;28;20135;-82
2021/10/13 04:03:14;;;;;;;9.43;5.53;;;8.70;99.90;;;;;;5076539;28;20131;-81
2021/10/13 04:05:41;;;;;;;7.93;5.22;;;8.70;99.90;;;;;;5087156;28;20135;-82
2021/10/13 04:08:09;;;;;;;8.73;5.20;;;8.70;99.90;;;;;;5082214;28;20084;-81
2021/10/13 04:10:37;;;;;;;8.30;4.88;;;8.70;99.90;;;;;;5077638;28;20497;-83
2021/10/13 04:13:04;;;;;;;8.02;4.90;;;8.70;99.90;;;;;;5086992;28;20576;-83
2021/10/13 04:15:32;;;;;;;8.43;4.68;;;8.70;99.90;;;;;;5085490;28;20517;-78
2021/10/13 04:17:59;;;;;;;8.20;4.93;;;8.70;99.90;;;;;;5086321;28;20155;-79
2021/10/13 04:20:26;;;;;;;9.23;5.13;;;8.70;99.90;;;;;;5086370;28;20144;-82
2021/10/13 04:22:53;;;;;;;8.13;4.50;;;8.70;99.90;;;;;;5087861;28;20138;-81
2021/10/13 04:25:20;;;;;;;7.05;4.90;;;8.70;99.90;;;;;;5079325;28;20135;-79
2021/10/13 04:27:49;;;;;;;7.53;4.50;;;8.70;99.90;;;;;;5091440;28;20127;-80
2021/10/13 04:30:16;;;;;;;9.18;5.45;;;8.70;99.90;;;;;;5088140;28;20554;-79
2021/10/13 04:32:43;;;;;;;7.65;4.78;;;8.70;99.90;;;;;;5095255;28;20083;-78
2021/10/13 04:35:11;;;;;;;7.75;4.97;;;8.80;99.90;;;;;;5095171;28;20127;-79
2021/10/13 04:37:39;;;;;;;8.23;4.75;;;8.80;99.90;;;;;;5095311;28;20139;-79
2021/10/13 04:40:08;;;;;;;7.88;4.82;;;8.80;99.90;;;;;;5095101;28;20048;-79
2021/10/13 04:42:35;;;;;;;8.27;5.15;;;8.80;99.90;;;;;;5095080;28;20082;-79
2021/10/13 04:45:05;;;;;;;6.97;4.10;;;8.80;99.90;;;;;;5094877;28;20139;-78
2021/10/13 04:47:32;;;;;;;8.57;4.75;;;8.80;99.90;;;;;;5094792;28;20135;-79
2021/10/13 04:49:59;;;;;;;9.63;5.45;;;8.80;99.90;;;;;;5094693;28;20135;-77
2021/10/13 04:52:28;;;;;;;9.77;5.38;;;8.80;99.90;;;;;;5094239;28;20048;-80
2021/10/13 04:54:55;;;;;;;9.15;5.65;;;8.70;99.90;;;;;;5094724;28;20106;-78
2021/10/13 04:57:22;;;;;;;9.02;4.90;;;8.70;99.90;;;;;;5094519;28;20134;-79
2021/10/13 04:59:50;;;;;;;7.55;4.80;;;8.60;99.90;;;;;;5094371;28;20469;-79
2021/10/13 05:02:19;;;;;;;8.55;4.55;;;8.60;99.90;;;;;;5094426;28;20048;-79
2021/10/13 05:04:46;;;;;;;8.93;4.88;;;8.60;99.90;;;;;;5094312;28;20139;-79
2021/10/13 05:07:13;;;;;;;7.47;4.80;;;8.60;99.90;;;;;;5094631;28;20131;-78
2021/10/13 05:09:40;;;;;;;6.75;4.70;;;8.60;99.90;;;;;;5094577;28;20127;-76
2021/10/13 05:12:07;;;;;;;9.48;5.57;;;8.60;99.90;;;;;;5094450;28;20135;-77
2021/10/13 05:14:34;;;;;;;7.97;4.55;;;8.60;99.90;;;;;;5094210;28;20564;-78
2021/10/13 05:17:01;;;;;;;8.85;4.93;;;8.60;99.90;;;;;;5094780;28;20151;-78
2021/10/13 05:19:30;;;;;;;9.35;4.97;;;8.60;99.90;;;;;;5094629;28;20132;-78
2021/10/13 05:21:57;;;;;;;8.60;4.88;;;8.60;99.90;;;;;;5094327;28;20123;-76
2021/10/13 05:24:24;;;;;;;6.65;4.32;;;8.50;99.90;;;;;;5094414;28;20044;-77
2021/10/13 05:26:51;;;;;;;7.40;4.72;;;8.50;99.90;;;;;;5094074;28;20131;-79
2021/10/13 05:29:18;;;;;;;7.85;5.15;;;8.50;99.90;;;;;;5093701;28;20139;-77
2021/10/13 05:31:45;;;;;;;9.50;4.60;;;8.50;99.90;;;;;;5093971;28;20123;-77
2021/10/13 05:34:12;;;;;;;7.70;4.78;;;8.50;99.90;;;;;;5093329;28;20470;-79
2021/10/13 05:36:41;;;;;;;7.53;4.60;;;8.50;99.90;;;;;;5093977;28;20131;-79
2021/10/13 05:39:08;;;;;;;7.57;5.05;;;8.40;99.90;;;;;;5093575;28;20127;-79
2021/10/13 05:41:35;;;;;;;8.43;5.15;;;8.40;99.90;;;;;;5093701;28;20135;-79
2021/10/13 05:44:02;;;;;;;8.18;5.00;;;8.40;99.90;;;;;;5093606;28;20167;-79
2021/10/13 05:46:29;;;;;;;8.52;5.25;;;8.40;99.90;;;;;;5093625;28;20696;-79
2021/10/13 05:48:56;;;;;;;10.82;5.55;;;8.40;99.90;;;;;;5093312;28;20143;-79
2021/10/13 05:51:23;;;;;;;8.75;5.40;;;8.40;99.90;;;;;;5093172;28;20581;-79
2021/10/13 05:53:52;;;;;;;12.30;5.43;;;8.40;99.90;;;;;;5092970;28;20139;-79
2021/10/13 05:56:19;;;;;;;8.77;5.15;;;8.40;99.90;;;;;;5093654;28;20101;-80
2021/10/13 05:58:47;;;;;;;8.48;4.97;;;8.30;99.90;;;;;;5093955;28;20443;-77
2021/10/13 06:01:18;;;;;;;8.00;5.10;;;8.30;99.90;;;;;;5093513;28;20054;-79
2021/10/13 06:03:45;;;;;;;8.23;4.90;;;8.30;99.90;;;;;;5093326;28;20075;-79
2021/10/13 06:06:15;;;;;;;8.95;6.03;;;8.30;99.90;;;;;;5093139;28;20135;-78
2021/10/13 06:08:42;;;;;;;7.75;5.35;;;8.30;99.90;;;;;;5093095;28;20094;-80
2021/10/13 06:11:11;;;;;;;8.70;5.47;;;8.30;99.90;;;;;;5093094;28;20123;-79
2021/10/13 06:13:39;;;;;;;8.32;5.07;;;8.30;99.90;;;;;;5093040;28;20435;-79
2021/10/13 06:16:09;;;;;;;9.05;5.13;;;8.30;99.90;;;;;;5094486;28;20059;-78
2021/10/13 06:18:37;;;;;;;8.68;5.40;;;8.30;99.90;;;;;;5095089;28;20477;-79
2021/10/13 06:21:04;;;;;;;9.43;5.55;;;8.30;99.90;;;;;;5092983;28;20123;-78
2021/10/13 06:23:32;;;;;;;7.35;4.68;;;8.30;99.90;;;;;;5093065;28;20134;-78
2021/10/13 06:25:59;;;;;;;8.52;5.85;;;8.30;99.90;;;;;;5092830;28;20651;-80
2021/10/13 06:28:27;;;;;;;8.30;5.22;;;8.30;99.90;;;;;;5093074;28;20131;-79
2021/10/13 06:30:54;;;;;;;9.52;5.68;;;8.20;99.90;;;;;;5092919;28;20135;-79
2021/10/13 06:33:22;;;;;;;11.25;6.22;;;8.20;99.90;;;;;;5092708;28;20131;-79
2021/10/13 06:35:49;;;;;;;10.80;6.40;;;8.10;99.90;;;;;;5092746;28;20507;-77
2021/10/13 06:38:17;;;;;;;9.55;5.20;;;8.10;99.90;;;;;;5092675;28;20143;-79
2021/10/13 06:40:44;;;;;;;8.95;5.63;;;8.20;99.90;;;;;;5092545;28;20051;-79
2021/10/13 06:43:11;;;;;;;9.38;5.70;;;8.10;99.90;;;;;;5092601;28;20588;-76
2021/10/13 06:45:40;;;;;;;9.60;6.20;;;8.20;99.90;;;;;;5092948;28;20047;-78
2021/10/13 06:48:08;;;;;;;9.60;5.82;;;8.20;99.90;;;;;;5092698;28;20086;-78
2021/10/13 06:50:36;;;;;;;11.68;5.80;;;8.30;99.90;;;;;;5092460;28;20580;-80
2021/10/13 06:53:04;;;;;;;9.48;5.45;;;8.40;99.90;;;;;;5092330;28;20138;-80
2021/10/13 06:55:31;;;;;;;9.02;6.07;;;8.40;99.90;;;;;;5092310;28;20143;-78
2021/10/13 06:57:58;;;;;;;10.35;6.47;;;8.50;99.90;;;;;;5093008;28;20122;-78
2021/10/13 07:00:25;;;;;;;10.57;6.43;;;8.60;99.90;;;;;;5092523;28;20456;-78
2021/10/13 07:02:54;;;;;;;12.90;6.82;;;8.60;99.90;;;;;;5092452;28;20123;-79
2021/10/13 07:05:21;;;;;;;9.02;5.60;;;8.60;99.90;;;;;;5091554;28;20067;-79
2021/10/13 07:07:50;;;;;;;9.05;5.60;;;8.60;99.90;;;;;;5092209;28;20126;-80
2021/10/13 07:10:19;;;;;;;8.23;5.13;;;8.60;99.90;;;;;;5092178;28;20574;-78
2021/10/13 07:12:47;;;;;;;10.57;6.13;;;8.60;99.90;;;;;;5092061;28;20048;-80
2021/10/13 07:15:15;;;;;;;9.50;6.07;;;8.70;99.90;;;;;;5092163;28;20134;-80
2021/10/13 07:17:43;;;;;;;10.52;6.53;;;8.70;99.90;;;;;;5092085;28;20134;-79
2021/10/13 07:20:12;;;;;;;10.13;6.07;;;8.80;99.90;;;;;;5092096;28;20043;-79
2021/10/13 07:22:39;;;;;;;9.05;5.63;;;8.80;99.90;;;;;;5092061;28;20603;-78
2021/10/13 07:25:09;;;;;;;11.75;6.25;;;8.80;99.90;;;;;;5092049;28;20568;-78
2021/10/13 07:27:37;;;;;;;8.80;5.28;;;8.90;99.90;;;;;;5092133;28;20051;-79
2021/10/13 07:30:06;;;;;;;10.43;5.60;;;8.90;99.90;;;;;;5091899;28;20052;-79
2021/10/13 07:32:35;;;;;;;8.73;5.35;;;8.90;99.90;;;;;;5091849;28;20126;-78
2021/10/13 07:35:02;;;;;;;10.60;6.28;;;8.90;99.90;;;;;;5092037;28;20056;-79
2021/10/13 07:37:31;;;;;;;9.18;5.70;;;8.90;99.90;;;;;;5092015;28;20138;-78
2021/10/13 07:39:58;;;;;;;9.48;5.72;;;8.90;99.90;;;;;;5091999;28;20134;-79
2021/10/13 07:42:25;;;;;;;10.02;5.93;;;9.00;99.90;;;;;;5091798;28;20128;-79
2021/10/13 07:44:52;;;;;;;9.25;6.15;;;9.00;99.90;;;;;;5091687;28;20131;-79
2021/10/13 07:47:19;;;;;;;10.80;6.60;;;9.00;99.90;;;;;;5091706;28;20080;-79
2021/10/13 07:49:46;;;;;;;9.15;5.95;;;9.00;99.90;;;;;;5091695;28;20548;-80
2021/10/13 07:52:13;;;;;;;11.90;6.45;;;9.00;99.90;;;;;;5091689;28;20593;-79
2021/10/13 07:54:42;;;;;;;10.85;6.68;;;9.00;99.90;;;;;;5091615;28;20394;-77
2021/10/13 07:57:09;;;;;;;12.02;6.25;;;9.00;99.90;;;;;;5091745;28;20135;-80
2021/10/13 07:59:36;;;;;;;11.02;6.45;;;9.00;99.90;;;;;;5091668;28;20087;-77
2021/10/13 08:02:03;;;;;;;10.55;6.63;;;9.00;99.90;;;;;;5091889;28;20139;-76
2021/10/13 08:04:30;;;;;;;11.10;6.22;;;9.00;99.90;;;;;;5093375;28;20058;-79
2021/10/13 08:06:57;;;;;;;9.45;5.60;;;8.90;99.90;;;;;;5091550;28;20087;-79
2021/10/13 08:09:25;;;;;;;11.40;6.60;;;9.00;99.90;;;;;;5091455;28;20127;-78
2021/10/13 08:11:53;;;;;;;10.27;6.20;;;9.00;99.90;;;;;;5091652;28;20501;-78
2021/10/13 08:14:20;;;;;;;10.20;5.80;;;9.10;99.90;;;;;;5091223;28;20109;-79
2021/10/13 08:16:47;;;;;;;9.18;5.45;;;9.10;99.90;;;;;;5092964;28;20139;-79
2021/10/13 08:19:14;;;;;;;8.93;5.80;;;9.20;99.90;;;;;;5095371;28;20139;-79
2021/10/13 08:21:41;;;;;;;9.35;5.43;;;9.20;99.90;;;;;;5095315;28;20052;-79
2021/10/13 08:24:08;;;;;;;9.15;5.55;;;9.30;99.90;;;;;;5095174;28;20143;-79
2021/10/13 08:26:35;;;;;;;9.13;5.22;;;9.20;99.90;;;;;;5095088;28;20138;-80
2021/10/13 08:29:04;;;;;;;9.77;5.20;;;9.30;99.90;;;;;;5095017;28;20083;-79
2021/10/13 08:31:31;;;;;;;10.68;6.03;;;9.30;99.90;;;;;;5095209;28;20123;-79
2021/10/13 08:33:58;;;;;;;8.57;5.47;;;9.40;99.90;;;;;;5095206;28;20119;-78
2021/10/13 08:36:26;;;;;;;11.77;6.38;;;9.40;99.90;;;;;;5095146;28;20473;-81
2021/10/13 08:38:53;;;;;;;11.27;6.35;;;9.30;99.90;;;;;;5094828;28;20123;-78
2021/10/13 08:41:20;;;;;;;10.93;6.10;;;9.30;99.90;;;;;;5094828;28;20134;-79
2021/10/13 08:43:47;;;;;;;9.38;5.50;;;9.30;99.90;;;;;;5094714;28;20657;-78
2021/10/13 08:46:15;;;;;;;8.82;5.22;;;9.30;99.90;;;;;;5094956;28;20150;-78
2021/10/13 08:48:43;;;;;;;10.20;5.45;;;9.40;99.90;;;;;;5094623;28;20094;-77
2021/10/13 08:51:10;;;;;;;9.00;5.00;;;9.50;99.90;;;;;;5088918;28;20123;-79
2021/10/13 08:53:37;;;;;;;10.88;5.68;;;9.60;99.90;;;;;;5077453;28;20127;-79
2021/10/13 08:56:04;;;;;;;9.63;5.32;;;9.70;99.90;;;;;;5094501;28;20139;-77
2021/10/13 08:58:39;;;;;;;9.07;5.13;;;9.80;99.90;;;;;;5094983;28;20135;-78
2021/10/13 09:01:12;;;;;;;9.32;5.70;;;9.90;99.90;;;;;;5094748;28;20135;-78
2021/10/13 09:03:44;;;;;;;8.20;4.90;;;10.10;99.90;;;;;;5094876;28;20135;-79
2021/10/13 09:06:20;;;;;;;7.15;4.63;;;10.20;99.90;;;;;;5094580;28;20052;-79
2021/10/13 09:08:59;;;;;;;8.32;4.88;;;10.40;99.90;;;;;;5092384;28;20496;-79
2021/10/13 09:11:38;;;;;;;7.05;3.95;;;10.40;99.90;;;;;;5094450;28;20135;-79
2021/10/13 09:14:12;;;;;;;9.45;4.40;;;10.50;99.90;;;;;;5094320;28;20139;-79
2021/10/13 09:16:58;;;;;;;8.13;3.90;;;10.60;99.90;;;;;;5094140;28;20083;-78
2021/10/13 09:19:29;;;;;;;7.50;3.40;;;10.60;99.90;;;;;;5094075;28;20095;-79
2021/10/13 09:21:58;;;;;;;5.82;2.90;;;10.50;99.90;;;;;;5094292;28;20139;-79
2021/10/13 09:24:27;;;;;;;6.90;3.10;;;10.50;99.90;;;;;;5092198;28;20135;-80
2021/10/13 09:26:56;;;;;;;5.78;3.10;;;10.50;99.90;;;;;;5093806;28;20138;-78
2021/10/13 09:29:23;;;;;;;5.95;2.90;;;10.50;99.70;;;;;;5093055;28;20044;-78
2021/10/13 09:31:59;;;;;;;8.00;3.42;;;10.50;99.60;;;;;;5094322;28;20401;-76
2021/10/13 09:34:27;;;;;;;7.65;3.40;;;10.60;99.30;;;;;;5093942;28;20460;-79
2021/10/13 09:36:59;;;;;;;5.60;3.00;;;10.60;99.00;;;;;;5093715;28;20131;-79
2021/10/13 09:39:28;;;;;;;6.40;3.45;;;10.60;99.10;;;;;;5092558;28;20058;-80
2021/10/13 09:42:05;;;;;;;5.75;2.63;;;10.60;99.00;;;;;;5073575;28;20140;-79
2021/10/13 09:44:36;;;;;;;5.03;2.83;;;10.70;99.20;;;;;;5073279;28;20079;-79
2021/10/13 09:47:07;;;;;;;6.90;2.70;;;10.70;98.90;;;;;;5073452;28;20143;-79
2021/10/13 09:49:38;;;;;;;5.63;2.30;;;10.70;98.50;;;;;;5074904;28;20148;-78
2021/10/13 09:52:12;;;;;;;4.88;2.40;;;10.80;97.80;;;;;;5083882;28;20139;-79
2021/10/13 09:54:42;;;;;;;6.03;2.50;;;10.80;97.90;;;;;;5093610;28;20083;-79
2021/10/13 09:57:24;;;;;;;6.43;3.03;;;10.80;98.00;;;;;;5093467;28;20079;-79
2021/10/13 10:00:01;;;;;;;6.10;2.47;;;10.90;97.90;;;;;;5093604;28;20561;-80
2021/10/13 10:02:32;;;;;;;5.88;2.58;;;10.90;98.10;;;;;;5091161;28;20040;-79
2021/10/13 10:05:08;;;;;;;7.28;2.33;;;10.90;98.30;;;;;;5070052;28;20124;-77
2021/10/13 10:07:40;;;;;;;5.93;2.70;;;11.00;98.80;;;;;;5089470;28;20094;-79
2021/10/13 10:10:14;;;;;;;8.80;3.50;;;11.00;98.50;;;;;;5087749;28;20417;-80
2021/10/13 10:13:05;;;;;;;9.03;3.43;;;11.10;98.10;;;;;;5088581;28;20087;-78
2021/10/13 10:15:38;;;;;;;6.13;3.25;;;11.10;98.40;;;;;;5089805;28;20051;-81
2021/10/13 10:18:31;;;;;;;8.55;3.60;;;11.10;98.20;;;;;;5090300;28;20632;-82
2021/10/13 10:21:17;;;;;;;7.78;2.92;;;11.10;97.80;;;;;;5087354;28;20044;-80
2021/10/13 10:23:45;;;;;;;5.82;2.53;;;11.10;97.40;;;;;;5090016;28;20052;-80
2021/10/13 10:26:34;;;;;;;5.20;2.10;;;11.20;97.50;;;;;;5086605;28;20058;-80
2021/10/13 10:29:12;;;;;;;6.88;1.98;;;11.30;97.30;;;;;;5069163;28;20053;-79
2021/10/13 10:31:42;;;;;;;4.45;2.00;;;11.50;97.10;;;;;;5069719;28;20052;-79
2021/10/13 10:34:14;;;;;;;5.28;1.80;;;11.50;96.80;;;;;;5069469;28;20512;-80
2021/10/13 10:37:17;;;;;;;5.53;2.70;;;11.70;96.90;;;;;;5069901;28;20072;-79
2021/10/13 10:39:58;;;;;;;;;;;11.70;96.90;;;;;;5069935;28;20048;-79
2021/10/13 10:42:54;;;;;;;5.95;2.45;;;11.70;97.10;;;;;;5069384;28;19921;-79
2021/10/13 10:45:24;;;;;;;5.07;2.67;;;11.60;97.60;;;;;;5069887;28;20048;-79
2021/10/13 10:48:05;;;;;;;6.38;2.70;;;11.50;97.70;;;;;;5069278;28;20065;-79
2021/10/13 10:51:00;;;;;;;5.68;2.60;;;11.50;97.10;;;;;;5069469;28;20056;-77
2021/10/13 10:53:41;;;;;;;4.93;2.45;;;11.30;97.00;;;;;;5068215;28;20509;-76
2021/10/13 10:56:29;;;;;;;5.97;2.60;;;11.30;96.80;;;;;;5069337;28;20138;-79
2021/10/13 10:59:11;;;;;;;6.53;2.53;;;11.30;97.10;;;;;;5069227;28;20502;-79
2021/10/13 11:01:39;;;;;;;5.20;2.60;;;11.30;97.00;;;;;;5069092;28;20048;-75
2021/10/13 11:04:13;;;;;;;5.00;2.35;;;11.30;97.10;;;;;;5076441;28;20127;-78
2021/10/13 11:06:41;;;;;;;6.32;2.42;;;11.30;97.20;;;;;;5084505;28;20330;-80
2021/10/13 11:09:11;;;;;;;7.75;2.88;;;11.50;97.40;;;;;;5077024;28;20425;-81
2021/10/13 11:11:41;;;;;;;6.20;2.95;;;11.60;97.80;;;;;;5068896;28;20596;-79
2021/10/13 11:14:15;;;;;;;6.18;2.83;;;11.70;96.70;;;;;;5073295;28;20136;-81
2021/10/13 11:16:55;;;;;;;8.13;3.40;;;11.70;96.60;;;;;;5069090;28;20481;-80
2021/10/13 11:19:27;;;;;;;6.30;3.13;;;11.80;96.00;;;;;;5069194;28;20074;-80
2021/10/13 11:22:01;;;;;;;8.60;3.08;;;11.90;96.10;;;;;;5083036;28;20794;-80
2021/10/13 11:24:30;;;;;;;4.80;2.30;;;11.90;96.20;;;;;;5077919;28;20045;-80
2021/10/13 11:26:57;;;;;;;5.53;3.13;;;12.10;96.60;;;;;;5069097;28;20406;-81
2021/10/13 11:29:29;;;;;;;3.47;1.63;;;12.20;95.30;;;;;;5069327;28;20127;-79
2021/10/13 11:32:14;;;;;;;2.83;1.20;;;12.20;93.80;;;;;;5069083;28;20164;-80
2021/10/13 11:34:43;;;;;;;4.00;1.30;;;12.20;93.10;;;;;;5068546;28;20085;-78
2021/10/13 11:37:11;;;;;;;2.40;0.75;;;12.30;92.50;;;;;;5073385;28;20687;-80
2021/10/13 11:39:45;;;;;;;2.58;0.90;;;12.40;92.80;;;;;;5070106;28;20123;-79
2021/10/13 11:42:16;;;;;;;4.13;1.20;;;12.50;92.30;;;;;;5068843;28;20051;-79
2021/10/13 11:44:49;;;;;;;3.25;1.00;;;12.70;91.40;;;;;;5068615;28;20414;-79
2021/10/13 11:47:16;;;;;;;2.53;1.10;;;12.90;91.50;;;;;;5068414;28;20490;-80
2021/10/13 11:49:58;;;;;;;3.83;1.20;;;13.10;91.20;;;;;;5068915;28;20147;-79
2021/10/13 11:52:26;;;;;;;2.30;1.10;;;13.20;89.00;;;;;;5071459;28;20132;-81
2021/10/13 11:55:09;;;;;;;3.08;1.30;;;13.10;88.10;;;;;;5073827;28;20143;-79
2021/10/13 11:57:38;;;;;;;3.90;1.35;;;13.20;89.30;;;;;;5072657;28;20476;-81
2021/10/13 12:00:20;;;;;;;5.78;2.25;;;13.20;89.90;;;;;;5072028;28;20152;-80
2021/10/13 12:03:05;;;;;;;4.22;1.90;;;13.20;89.80;;;;;;5082210;28;20058;-79
2021/10/13 12:05:37;;;;;;;4.95;2.22;;;13.00;90.80;;;;;;5092507;28;20044;-79
2021/10/13 12:08:08;;;;;;;4.72;2.50;;;12.90;91.50;;;;;;5092471;28;20118;-79
2021/10/13 12:10:40;;;;;;;5.93;2.72;;;12.80;91.90;;;;;;5092517;28;20192;-80
2021/10/13 12:13:09;;;;;;;4.53;2.40;;;12.60;92.20;;;;;;5092231;28;20135;-76
2021/10/13 12:15:37;;;;;;;5.35;2.40;;;12.50;92.70;;;;;;5092577;28;20054;-80
2021/10/13 12:18:19;;;;;;;5.43;2.47;;;12.40;93.20;;;;;;5091108;28;20459;-79
2021/10/13 12:20:49;;;;;;;6.78;2.92;;;12.40;93.20;;;;;;5092409;28;20643;-79
2021/10/13 12:23:20;;;;;;;5.68;2.55;;;12.40;93.60;;;;;;5092325;28;20052;-81
2021/10/13 12:25:49;;;;;;;7.70;3.05;;;12.40;93.70;;;;;;5091998;28;20051;-78
2021/10/13 12:28:20;;;;;;;5.25;2.60;;;12.30;93.40;;;;;;5090972;28;20044;-79
2021/10/13 12:30:57;;;;;;;5.65;2.30;;;12.30;93.30;;;;;;5092324;28;20566;-80
2021/10/13 12:33:26;;;;;;;5.78;2.40;;;12.40;92.60;;;;;;5090389;28;20135;-78
2021/10/13 12:36:08;;;;;;;6.30;2.33;;;12.50;92.60;;;;;;5092023;28;20051;-79
2021/10/13 12:38:43;;;;;;;5.70;1.95;;;12.80;92.70;;;;;;5094823;28;20052;-76
2021/10/13 12:41:12;;;;;;;4.20;1.50;;;13.20;90.80;;;;;;5092355;28;20126;-79
2021/10/13 12:43:43;;;;;;;4.43;1.88;;;13.40;90.30;;;;;;5091945;28;20052;-80
2021/10/13 12:46:30;;;;;;;3.97;1.77;;;13.50;86.80;;;;;;5090199;28;20127;-78
2021/10/13 12:48:59;;;;;;;4.63;1.55;;;13.50;86.00;;;;;;5091811;28;20134;-79
2021/10/13 12:51:27;;;;;;;2.90;1.25;;;13.40;87.80;;;;;;5091118;28;20082;-77
2021/10/13 12:53:54;;;;;;;2.80;1.20;;;13.40;88.50;;;;;;5073342;28;20135;-80
2021/10/13 12:56:24;;;;;;;4.32;1.52;;;13.20;89.60;;;;;;5073156;28;20143;-80
2021/10/13 12:58:51;;;;;;;2.60;1.00;;;13.00;89.40;;;;;;5091181;28;20070;-81
2021/10/13 13:01:18;;;;;;;4.57;1.20;;;12.70;89.20;;;;;;5090774;28;20109;-79
2021/10/13 13:03:45;;;;;;;3.33;1.20;;;12.60;90.20;;;;;;5089117;28;20055;-77
2021/10/13 13:06:12;;;;;;;3.90;1.15;;;12.40;91.00;;;;;;5090604;28;20143;-80
2021/10/13 13:08:41;;;;;;;3.67;1.15;;;12.30;91.80;;;;;;5090990;28;20134;-80
2021/10/13 13:11:08;;;;;;;3.70;1.25;;;12.30;92.90;;;;;;5093351;28;20048;-83